Time;durP1;ratioP1;P1;durP2;ratioP2;P2;SDS_P1;SDS_P2;PMS_P1;PMS_P2;Temp;Humidity;BMP_temperature;BMP_pressure;BME280_temperature;BME280_humidity;BME280_pressure;Samples;Min_cycle;Max_cycle;Signal;HPM_P1;HPM_P2
2021/05/14 00:00:05;;;;;;;4.80;4.30;;;;;;;23.14;52.96;99293.30;1705679;84;21118;-66
2021/05/14 00:02:33;;;;;;;86.53;79.90;;;;;;;23.12;53.03;99298.48;1703363;83;21031;-65
2021/05/14 00:05:02;;;;;;;5.08;4.58;;;;;;;23.41;54.58;99289.86;1698662;84;20975;-65
2021/05/14 00:07:31;;;;;;;5.30;4.15;;;;;;;24.67;51.97;99287.22;1699100;84;21038;-66
2021/05/14 00:09:57;;;;;;;4.42;4.03;;;;;;;25.31;49.69;99287.27;1699386;84;21028;-65
2021/05/14 00:12:24;;;;;;;4.78;4.10;;;;;;;25.33;48.96;99282.53;1696558;84;21810;-64
2021/05/14 00:14:51;;;;;;;4.30;3.87;;;;;;;25.13;48.91;99279.21;1694340;84;21575;-64
2021/05/14 00:17:18;;;;;;;4.20;3.80;;;;;;;24.86;49.16;99275.36;1696673;84;20987;-66
2021/05/14 00:19:44;;;;;;;4.47;4.08;;;;;;;24.61;49.49;99275.55;1698437;84;21376;-69
2021/05/14 00:22:12;;;;;;;4.53;3.77;;;;;;;24.38;49.88;99272.06;1705090;84;21018;-63
2021/05/14 00:24:39;;;;;;;4.30;3.72;;;;;;;24.17;50.21;99272.66;1701109;84;21064;-69
2021/05/14 00:27:08;;;;;;;4.05;3.65;;;;;;;24.00;50.53;99263.48;1679228;84;21602;-63
2021/05/14 00:29:36;;;;;;;3.92;3.52;;;;;;;23.86;50.78;99267.98;1700912;84;21247;-65
2021/05/14 00:32:03;;;;;;;4.05;3.65;;;;;;;23.72;51.06;99264.52;1702752;84;21309;-65
2021/05/14 00:34:31;;;;;;;4.35;3.95;;;;;;;23.59;51.35;99262.17;1704631;84;21156;-65
2021/05/14 00:36:58;;;;;;;4.55;3.83;;;;;;;23.52;51.55;99263.20;1707502;84;21776;-64
2021/05/14 00:39:25;;;;;;;4.65;3.80;;;;;;;23.44;51.76;99261.55;1701173;84;21094;-67
2021/05/14 00:41:52;;;;;;;4.12;3.72;;;;;;;23.38;51.91;99259.73;1697797;84;21003;-66
2021/05/14 00:44:32;;;;;;;4.10;3.52;;;;;;;23.36;51.98;99255.14;1697817;84;21094;-66
2021/05/14 00:47:03;;;;;;;3.90;3.50;;;;;;;23.35;52.02;99249.52;1697914;84;21044;-67
2021/05/14 00:49:30;;;;;;;3.80;3.40;;;;;;;23.31;52.00;99244.61;1704903;84;21259;-67
2021/05/14 00:51:58;;;;;;;3.60;3.30;;;;;;;23.29;52.01;99241.34;1701434;84;21019;-66
2021/05/14 00:54:26;;;;;;;4.25;3.62;;;;;;;23.27;52.02;99234.58;1704867;84;21575;-66
2021/05/14 00:56:52;;;;;;;4.35;3.45;;;;;;;23.25;52.04;99238.78;1708001;83;21575;-67
2021/05/14 00:59:22;;;;;;;4.90;3.65;;;;;;;23.22;52.02;99235.20;1708131;84;21165;-58
2021/05/14 01:01:48;;;;;;;4.87;3.50;;;;;;;23.19;52.02;99232.92;1708053;84;21386;-58
2021/05/14 01:04:16;;;;;;;4.25;3.37;;;;;;;23.17;52.01;99225.66;1707985;84;21018;-58
2021/05/14 01:06:43;;;;;;;4.10;3.27;;;;;;;23.14;52.02;99224.24;1703517;84;21944;-58
2021/05/14 01:09:09;;;;;;;4.30;3.37;;;;;;;23.11;52.05;99222.48;1700232;84;21509;-58
2021/05/14 01:11:36;;;;;;;3.15;2.83;;;;;;;23.09;52.05;99221.88;1698914;84;21078;-58
2021/05/14 01:14:03;;;;;;;3.85;3.30;;;;;;;23.05;52.05;99223.30;1702264;83;21085;-59
2021/05/14 01:16:32;;;;;;;4.35;3.40;;;;;;;23.04;52.07;99221.16;1699948;84;21058;-59
2021/05/14 01:18:59;;;;;;;3.58;3.12;;;;;;;23.00;52.06;99218.08;1669435;85;21551;-58
2021/05/14 01:21:26;;;;;;;3.50;3.20;;;;;;;22.99;52.06;99218.30;1688341;84;21018;-59
2021/05/14 01:23:52;;;;;;;4.78;3.17;;;;;;;22.96;52.06;99210.73;1705316;84;21073;-58
2021/05/14 01:26:20;;;;;;;4.22;3.12;;;;;;;22.95;52.07;99214.41;1707837;84;21086;-59
2021/05/14 01:28:47;;;;;;;3.70;2.83;;;;;;;22.92;52.08;99216.97;1697978;84;21535;-59
2021/05/14 01:31:14;;;;;;;3.58;3.15;;;;;;;22.90;52.11;99204.90;1697638;84;20999;-59
2021/05/14 01:33:41;;;;;;;3.27;2.70;;;;;;;22.88;52.16;99211.75;1699776;84;21075;-60
2021/05/14 01:36:08;;;;;;;5.47;3.25;;;;;;;22.85;52.13;99213.48;1707910;84;21051;-59
2021/05/14 01:38:35;;;;;;;5.53;3.27;;;;;;;22.84;52.16;99209.19;1706768;84;21005;-58
2021/05/14 01:41:02;;;;;;;5.10;3.05;;;;;;;22.84;52.17;99213.17;1702288;84;21011;-58
2021/05/14 01:43:29;;;;;;;3.87;3.05;;;;;;;22.81;52.19;99210.39;1697609;84;21568;-57
2021/05/14 01:45:56;;;;;;;6.47;3.12;;;;;;;22.80;52.21;99207.95;1703046;84;20982;-58
2021/05/14 01:48:23;;;;;;;4.12;3.05;;;;;;;22.78;52.24;99213.97;1699392;84;20991;-57
2021/05/14 01:50:49;;;;;;;3.80;3.12;;;;;;;22.78;52.24;99208.66;1697749;84;21054;-59
2021/05/14 01:53:16;;;;;;;3.20;2.70;;;;;;;22.75;52.27;99206.41;1697985;84;21055;-56
2021/05/14 01:55:43;;;;;;;3.77;3.10;;;;;;;22.75;52.29;99205.88;1708118;84;21034;-58
2021/05/14 01:58:10;;;;;;;3.70;2.83;;;;;;;22.74;52.30;99205.57;1708034;83;21133;-58
2021/05/14 02:00:39;;;;;;;3.35;2.98;;;;;;;22.72;52.29;99207.11;1708001;84;21778;-64
2021/05/14 02:03:06;;;;;;;3.90;3.12;;;;;;;22.71;52.30;99209.45;1708052;84;21126;-66
2021/05/14 02:05:34;;;;;;;4.55;2.72;;;;;;;22.70;52.30;99213.12;1707809;84;20971;-67
2021/05/14 02:08:01;;;;;;;4.08;3.20;;;;;;;22.71;52.29;99208.66;1708126;84;20975;-66
2021/05/14 02:10:28;;;;;;;4.65;2.92;;;;;;;22.68;52.30;99209.86;1699399;84;21023;-66
2021/05/14 02:12:56;;;;;;;4.12;3.05;;;;;;;22.69;52.30;99204.05;1697465;84;21113;-68
2021/05/14 02:15:23;;;;;;;3.05;2.75;;;;;;;22.68;52.29;99204.55;1695067;84;21035;-68
2021/05/14 02:17:50;;;;;;;5.65;2.80;;;;;;;22.68;52.28;99201.09;1697120;84;20983;-67
2021/05/14 02:20:17;;;;;;;4.72;3.20;;;;;;;22.67;52.27;99197.61;1697422;84;20987;-68
2021/05/14 02:22:46;;;;;;;3.30;2.85;;;;;;;22.66;52.25;99195.97;1698313;84;21082;-67
2021/05/14 02:25:12;;;;;;;3.90;2.83;;;;;;;22.66;52.25;99195.97;1697505;84;21610;-67
2021/05/14 02:27:39;;;;;;;4.87;2.80;;;;;;;22.66;52.23;99195.97;1698775;83;21109;-68
2021/05/14 02:30:07;;;;;;;4.50;2.90;;;;;;;22.65;52.20;99194.34;1709631;83;21608;-67
2021/05/14 02:32:35;;;;;;;4.03;2.92;;;;;;;22.66;52.19;99191.19;1699540;84;21274;-68
2021/05/14 02:35:02;;;;;;;3.80;2.67;;;;;;;22.65;52.15;99192.20;1697367;84;21551;-67
2021/05/14 02:37:28;;;;;;;3.50;2.87;;;;;;;22.65;52.14;99193.53;1697160;84;21598;-68
2021/05/14 02:39:55;;;;;;;3.55;2.87;;;;;;;22.64;52.13;99186.59;1697083;84;21090;-69
2021/05/14 02:42:21;;;;;;;4.28;2.90;;;;;;;22.64;52.10;99187.39;1713293;83;21079;-68
2021/05/14 02:44:48;;;;;;;4.42;3.05;;;;;;;22.63;52.07;99184.43;1698117;84;21076;-69
2021/05/14 02:47:17;;;;;;;4.75;3.20;;;;;;;22.64;52.05;99184.73;1707429;83;20990;-69
2021/05/14 02:49:43;;;;;;;3.17;2.62;;;;;;;22.63;52.01;99180.45;1707759;84;20983;-68
2021/05/14 02:52:09;;;;;;;4.90;2.98;;;;;;;22.63;51.99;99180.45;1669248;86;21079;-68
2021/05/14 02:54:37;;;;;;;4.20;2.85;;;;;;;22.63;51.95;99180.45;1689550;84;21003;-70
2021/05/14 02:57:05;;;;;;;6.03;2.72;;;;;;;22.64;51.93;99181.28;1699714;84;21038;-70
2021/05/14 02:59:34;;;;;;;3.95;2.95;;;;;;;22.63;51.90;99179.13;1698455;83;20991;-69
2021/05/14 03:02:00;;;;;;;3.75;3.00;;;;;;;22.64;51.89;99178.63;1699983;84;21542;-69
2021/05/14 03:04:27;;;;;;;5.60;3.05;;;;;;;22.63;51.87;99177.80;1701733;83;21096;-68
2021/05/14 03:06:55;;;;;;;4.30;2.83;;;;;;;22.62;51.86;99181.47;1707739;84;20998;-67
2021/05/14 03:09:24;;;;;;;4.95;2.83;;;;;;;22.63;51.86;99183.63;1707848;83;20959;-67
2021/05/14 03:11:51;;;;;;;5.58;3.10;;;;;;;22.63;51.83;99183.10;1707861;84;21082;-67
2021/05/14 03:14:17;;;;;;;3.80;2.70;;;;;;;22.63;51.84;99179.64;1703837;84;20982;-67
2021/05/14 03:16:46;;;;;;;4.65;2.85;;;;;;;22.62;51.83;99175.36;1682644;84;21590;-67
2021/05/14 03:19:13;;;;;;;5.22;3.20;;;;;;;22.62;51.78;99181.47;1706908;84;21372;-65
2021/05/14 03:21:39;;;;;;;4.25;3.05;;;;;;;22.63;51.77;99176.47;1698969;83;21028;-63
2021/05/14 03:24:08;;;;;;;3.90;3.15;;;;;;;22.63;51.79;99182.30;1697476;84;20995;-67
2021/05/14 03:26:35;;;;;;;5.05;3.17;;;;;;;22.63;51.77;99180.97;1697386;84;21570;-67
2021/05/14 03:29:03;;;;;;;3.65;2.95;;;;;;;22.62;51.77;99176.68;1698932;84;20935;-67
2021/05/14 03:31:30;;;;;;;5.53;3.10;;;;;;;22.63;51.76;99180.45;1700316;84;21547;-68
2021/05/14 03:33:57;;;;;;;4.15;3.20;;;;;;;22.63;51.76;99178.31;1700533;84;20916;-68
2021/05/14 03:36:23;;;;;;;4.87;3.17;;;;;;;22.62;51.76;99182.80;1703425;83;21583;-67
2021/05/14 03:38:51;;;;;;;3.37;2.60;;;;;;;22.63;51.76;99182.30;1707871;84;20975;-68
2021/05/14 03:43:58;;;;;;;4.22;3.15;;;;;;;22.62;51.78;99181.47;1704139;84;21065;-67
2021/05/14 03:46:34;;;;;;;4.03;2.75;;;;;;;22.62;51.77;99181.47;1700033;84;21023;-68
2021/05/14 03:48:58;;;;;;;4.60;2.83;;;;;;;22.62;51.77;99192.08;1699739;84;21330;-67
2021/05/14 03:51:25;;;;;;;6.00;2.80;;;;;;;22.62;51.79;99181.47;1700278;84;21035;-67
2021/05/14 03:53:51;;;;;;;5.35;2.62;;;;;;;22.62;51.78;99181.47;1703656;83;21124;-67
2021/05/14 03:56:18;;;;;;;5.25;3.30;;;;;;;22.62;51.83;99189.42;1707985;84;21003;-67
2021/05/14 03:58:44;;;;;;;3.52;2.58;;;;;;;22.62;51.81;99177.48;1706961;84;21006;-67
2021/05/14 04:01:12;;;;;;;3.87;2.60;;;;;;;22.63;51.79;99178.31;1700647;84;20999;-67
2021/05/14 04:03:38;;;;;;;3.60;2.67;;;;;;;22.63;51.80;99179.13;1700321;84;21018;-66
2021/05/14 04:06:08;;;;;;;4.85;2.98;;;;;;;22.63;51.80;99184.43;1700354;84;21119;-67
2021/05/14 04:08:35;;;;;;;3.37;2.37;;;;;;;22.63;51.81;99175.14;1700086;83;21039;-67
2021/05/14 04:11:28;;;;;;;4.25;2.70;;;;;;;22.63;51.80;99177.80;1700299;84;20999;-67
2021/05/14 04:16:30;;;;;;;4.22;2.70;;;;;;;22.62;51.81;99178.81;1670216;85;20255;-65
2021/05/14 04:18:57;;;;;;;4.55;2.50;;;;;;;22.61;51.77;99183.01;1674037;83;21736;-59
2021/05/14 04:21:27;;;;;;;3.55;2.70;;;;;;;22.62;51.80;99184.64;1699599;83;37658;-60
2021/05/14 04:23:54;;;;;;;3.98;2.40;;;;;;;22.61;51.83;99180.35;1702148;83;21566;-65
2021/05/14 04:26:21;;;;;;;4.62;2.77;;;;;;;22.61;51.86;99181.68;1704339;83;21170;-67
2021/05/14 04:28:48;;;;;;;5.12;2.87;;;;;;;22.60;51.88;99183.50;1705668;83;21676;-65
2021/05/14 04:31:14;;;;;;;5.03;2.62;;;;;;;22.60;51.92;99186.16;1699157;84;21140;-65
2021/05/14 04:33:41;;;;;;;4.20;3.20;;;;;;;22.61;51.96;99186.46;1706132;83;21638;-66
2021/05/14 04:36:07;;;;;;;5.08;3.27;;;;;;;22.62;51.97;99193.41;1705607;83;20987;-67
2021/05/14 04:38:36;;;;;;;49.18;43.98;;;;;;;22.63;52.32;99191.06;1706415;83;21652;-66
2021/05/14 04:41:04;;;;;;;10.72;3.90;;;;;;;22.91;54.39;99194.09;1656920;85;21086;-67
2021/05/14 04:43:31;;;;;;;9.53;3.58;;;;;;;24.16;52.69;99197.88;1707427;82;21114;-59
2021/05/14 04:45:57;;;;;;;8.93;3.87;;;;;;;24.85;50.58;99195.17;1707962;83;20994;-61
2021/05/14 04:48:24;;;;;;;15.53;3.85;;;;;;;24.97;49.75;99196.13;1705910;83;21038;-59
2021/05/14 04:50:50;;;;;;;12.82;3.98;;;;;;;24.86;49.62;99200.30;1710566;83;21023;-60
2021/05/14 04:53:18;;;;;;;14.93;4.50;;;;;;;24.70;49.78;99198.11;1711857;83;21090;-60
2021/05/14 04:55:45;;;;;;;16.02;3.77;;;;;;;24.52;50.07;99196.97;1706596;82;21105;-58
2021/05/14 04:58:11;;;;;;;12.80;3.92;;;;;;;24.36;50.33;99192.96;1707935;84;21503;-64
2021/05/14 05:00:38;;;;;;;16.57;4.05;;;;;;;24.22;50.66;99195.40;1706007;84;21237;-62
2021/05/14 05:03:06;;;;;;;10.43;3.58;;;;;;;24.10;51.04;99191.23;1708125;83;21114;-61
2021/05/14 05:05:33;;;;;;;10.08;3.67;;;;;;;23.99;51.32;99191.38;1682516;84;21030;-61
2021/05/14 05:07:59;;;;;;;8.20;3.45;;;;;;;23.89;51.51;99183.81;1708008;84;21226;-60
2021/05/14 05:10:26;;;;;;;7.70;3.08;;;;;;;23.81;51.68;99186.20;1708737;83;21042;-59
2021/05/14 05:13:01;;;;;;;9.98;4.28;;;;;;;23.73;51.94;99186.41;1706089;83;21090;-58
2021/05/14 05:15:32;;;;;;;46.88;9.50;;;;;;;23.67;52.34;99186.72;1702077;83;21015;-59
2021/05/14 05:17:59;;;;;;;62.70;11.10;;;;;;;23.61;52.57;99183.05;1710647;83;21086;-59
2021/05/14 05:20:26;;;;;;;37.45;8.68;;;;;;;23.57;52.76;99183.16;1706278;84;21079;-59
2021/05/14 05:22:52;;;;;;;27.60;7.50;;;;;;;23.53;52.86;99181.94;1706525;83;21090;-58
2021/05/14 05:25:21;;;;;;;34.63;8.20;;;;;;;23.51;52.87;99185.31;1699170;83;21272;-59
2021/05/14 05:27:48;;;;;;;38.30;10.08;;;;;;;23.49;52.83;99185.23;1712438;83;21159;-58
2021/05/14 05:30:17;;;;;;;44.25;9.65;;;;;;;23.49;52.78;99180.72;1700997;83;21582;-58
2021/05/14 05:32:44;;;;;;;41.48;10.70;;;;;;;23.50;52.82;99185.53;1694942;84;21127;-56
2021/05/14 05:35:11;;;;;;;51.35;12.35;;;;;;;23.50;52.85;99183.68;1698053;84;21208;-63
2021/05/14 05:37:39;;;;;;;42.83;10.60;;;;;;;23.50;52.86;99181.02;1700145;84;20936;-63
2021/05/14 05:40:07;;;;;;;33.70;10.70;;;;;;;23.50;52.88;99185.01;1680311;84;20982;-63
2021/05/14 05:42:33;;;;;;;40.40;9.40;;;;;;;23.69;54.37;99184.67;1700365;84;21547;-64
2021/05/14 05:45:02;;;;;;;44.65;9.83;;;;;;;24.78;52.14;99180.58;1699710;83;21062;-64
2021/05/14 05:47:32;;;;;;;36.17;8.80;;;;;;;25.38;50.04;99173.44;1700120;84;21594;-65
2021/05/14 05:50:02;;;;;;;29.20;8.18;;;;;;;25.45;49.23;99173.93;1700222;84;21128;-64
2021/05/14 05:52:28;;;;;;;25.65;8.70;;;;;;;25.25;49.12;99173.55;1666039;85;21031;-64
2021/05/14 05:54:55;;;;;;;25.48;8.30;;;;;;;25.02;49.29;99177.64;1666304;86;20999;-64
2021/05/14 05:57:21;;;;;;;27.80;8.30;;;;;;;24.81;49.54;99184.16;1700230;83;21204;-64
2021/05/14 06:02:35;;;;;;;22.93;7.83;;;;;;;24.43;50.13;99183.63;1814738;79;22535;-64
2021/05/14 06:05:05;;;;;;;24.57;8.35;;;;;;;24.26;50.47;99182.78;1787342;80;20954;-65
2021/05/14 06:07:32;;;;;;;24.80;7.85;;;;;;;24.19;50.54;99178.83;1787857;80;21569;-64
2021/05/14 06:10:00;;;;;;;23.52;7.83;;;;;;;24.10;50.66;99178.76;1787879;80;21013;-63
2021/05/14 06:12:28;;;;;;;19.25;7.53;;;;;;;23.99;50.82;99177.58;1787957;80;20974;-64
2021/05/14 06:14:56;;;;;;;18.85;7.25;;;;;;;23.88;50.98;99168.36;1784409;80;21559;-64
2021/05/14 06:17:24;;;;;;;27.42;7.50;;;;;;;23.80;51.17;99167.28;1781067;80;21160;-59
2021/05/14 06:19:54;;;;;;;17.60;7.25;;;;;;;23.72;51.29;99171.48;1782385;80;21096;-58
2021/05/14 06:22:19;;;;;;;21.60;7.35;;;;;;;23.65;51.46;99168.02;1781954;80;21074;-63
2021/05/14 06:24:47;;;;;;;19.77;6.45;;;;;;;23.57;51.62;99165.89;1754521;80;21521;-65
2021/05/14 06:27:15;;;;;;;19.82;7.03;;;;;;;23.52;51.71;99157.72;1782815;80;21059;-65
2021/05/14 06:29:42;;;;;;;21.23;7.05;;;;;;;23.46;51.82;99163.36;1783033;80;21903;-64
2021/05/14 06:32:09;;;;;;;17.67;6.35;;;;;;;23.43;51.92;99168.25;1782910;80;21685;-63
2021/05/14 06:34:36;;;;;;;18.80;6.55;;;;;;;23.40;52.04;99166.04;1782818;80;21606;-64
2021/05/14 06:37:03;;;;;;;14.18;5.55;;;;;;;23.35;52.14;99181.25;1782962;80;20951;-64
2021/05/14 06:39:30;;;;;;;18.65;6.12;;;;;;;23.33;52.21;99179.30;1782912;80;21554;-64
2021/05/14 06:41:56;;;;;;;20.60;6.75;;;;;;;23.33;52.24;99174.52;1768124;80;21529;-63
2021/05/14 06:44:23;;;;;;;21.65;7.22;;;;;;;23.35;52.21;99184.43;1785907;80;21095;-62
2021/05/14 06:46:49;;;;;;;16.70;5.58;;;;;;;23.37;52.17;99181.06;1725610;81;20986;-64
2021/05/14 06:49:18;;;;;;;14.78;6.05;;;;;;;23.38;52.15;99178.70;1715715;83;21638;-63
2021/05/14 06:51:44;;;;;;;15.98;6.58;;;;;;;23.39;52.14;99171.05;1715755;83;21131;-61
2021/05/14 06:54:11;;;;;;;16.50;5.33;;;;;;;23.39;52.17;99165.73;1711595;82;21050;-61
2021/05/14 06:56:38;;;;;;;12.93;5.60;;;;;;;23.39;52.15;99169.19;1702625;84;21082;-61
2021/05/14 06:59:04;;;;;;;14.95;5.40;;;;;;;23.38;52.15;99168.88;1682517;84;21487;-63
2021/05/14 07:01:31;;;;;;;15.18;5.35;;;;;;;23.39;52.14;99171.05;1719765;81;20996;-63
2021/05/14 07:03:59;;;;;;;13.10;5.08;;;;;;;23.37;52.13;99171.77;1716078;83;20987;-61
2021/05/14 07:06:28;;;;;;;13.62;5.47;;;;;;;23.35;52.18;99169.82;1714283;83;20960;-63
2021/05/14 07:08:55;;;;;;;12.47;5.65;;;;;;;23.34;52.20;99168.19;1715353;83;21055;-64
2021/05/14 07:11:22;;;;;;;14.68;5.12;;;;;;;23.32;52.22;99171.03;1731258;82;21554;-67
2021/05/14 07:13:50;;;;;;;12.37;5.28;;;;;;;23.30;52.31;99168.59;1754944;80;21618;-64
2021/05/14 07:16:17;;;;;;;13.53;5.10;;;;;;;23.33;52.33;99170.53;1758624;80;20979;-62
2021/05/14 07:18:44;;;;;;;16.45;5.58;;;;;;;23.33;52.41;99169.20;1757837;81;21002;-62
2021/05/14 07:21:10;;;;;;;12.10;4.92;;;;;;;23.34;52.51;99168.19;1766925;80;21079;-64
2021/05/14 07:23:37;;;;;;;13.38;5.28;;;;;;;23.34;52.55;99172.17;1779355;80;20980;-62
2021/05/14 07:26:04;;;;;;;13.08;5.03;;;;;;;23.33;52.57;99166.02;1769312;80;20955;-62
2021/05/14 07:28:30;;;;;;;10.93;4.83;;;;;;;23.33;52.59;99169.20;1755891;81;21033;-65
2021/05/14 07:30:57;;;;;;;18.15;4.62;;;;;;;23.31;52.61;99170.73;1764419;80;21058;-70
2021/05/14 07:33:24;;;;;;;27.32;24.50;;;;;;;23.33;52.71;99178.50;1774443;80;21067;-68
2021/05/14 07:35:50;;;;;;;10.45;4.33;;;;;;;23.68;54.23;99170.27;1757050;80;20967;-63
2021/05/14 07:38:18;;;;;;;10.82;3.95;;;;;;;25.00;51.48;99173.05;1773645;80;21104;-64
2021/05/14 07:40:45;;;;;;;12.47;4.35;;;;;;;25.73;49.09;99179.28;1778861;80;21008;-62
2021/05/14 07:43:12;;;;;;;8.80;3.77;;;;;;;25.81;48.26;99175.81;1779392;80;21032;-59
2021/05/14 07:45:38;;;;;;;10.18;3.77;;;;;;;25.66;48.14;99173.49;1779353;80;21696;-59
2021/05/14 07:48:06;;;;;;;9.98;4.33;;;;;;;25.45;48.23;99179.27;1779316;80;20933;-57
2021/05/14 07:50:33;;;;;;;14.55;3.95;;;;;;;25.24;48.44;99185.24;1779314;80;20948;-59
2021/05/14 07:53:01;;;;;;;9.70;3.77;;;;;;;25.06;48.59;99184.17;1779296;80;21058;-56
2021/05/14 07:55:27;;;;;;;9.63;3.70;;;;;;;24.91;48.79;99184.99;1655718;80;313738;-56
2021/05/14 07:59:58;;;;;;;6.60;3.60;;;;;;;24.61;48.67;99194.89;124444;1090;64330;-59
2021/05/14 08:02:27;;;;;;;11.10;3.80;;;;;;;24.48;48.99;99185.95;124256;1104;64222;-58
2021/05/14 08:04:56;;;;;;;8.20;3.75;;;;;;;24.38;49.83;99185.58;124210;1104;64333;-60
2021/05/14 08:07:25;;;;;;;14.37;4.13;;;;;;;24.27;49.84;99188.94;124271;1104;64357;-60
2021/05/14 08:09:54;;;;;;;10.83;3.80;;;;;;;24.16;49.49;99193.88;124363;1098;64359;-60
2021/05/14 08:12:25;;;;;;;9.23;3.67;;;;;;;24.07;49.88;99189.81;124233;1104;64470;-58
2021/05/14 08:15:01;;;;;;;9.40;3.95;;;;;;;24.01;50.05;99191.48;124244;1100;64709;-59
2021/05/14 08:17:32;;;;;;;10.03;3.50;;;;;;;23.93;50.58;99190.84;124373;1104;64343;-60
2021/05/14 08:20:02;;;;;;;10.53;4.10;;;;;;;23.84;50.39;99196.41;124345;1100;64355;-60
2021/05/14 08:22:31;;;;;;;11.10;4.20;;;;;;;23.76;50.32;99201.95;124285;1100;64490;-66
2021/05/14 08:25:00;;;;;;;8.20;3.60;;;;;;;23.71;50.42;99205.21;124210;1099;64326;-66
2021/05/14 08:27:28;;;;;;;10.20;3.60;;;;;;;23.65;50.93;99207.89;124311;1100;64342;-59
2021/05/14 08:29:57;;;;;;;7.30;3.23;;;;;;;23.59;50.84;99202.38;124173;1104;133117;-63
2021/05/14 08:32:26;;;;;;;9.00;3.60;;;;;;;23.56;50.93;99199.33;123752;1103;338809;-62
2021/05/14 08:34:56;;;;;;;9.80;3.80;;;;;;;23.51;51.48;99204.44;124152;1099;64386;-63
2021/05/14 08:37:24;;;;;;;14.35;3.50;;;;;;;23.46;52.05;99205.04;124227;1104;64419;-58
2021/05/14 08:39:53;;;;;;;7.83;3.00;;;;;;;23.42;51.15;99201.99;124243;1100;64352;-57
2021/05/14 08:42:22;;;;;;;33.17;26.93;;;;;;;23.64;52.94;99199.09;124439;1104;64327;-59
2021/05/14 08:44:51;;;;;;;60.97;52.90;;;;;;;24.53;51.31;99203.92;124193;1104;64403;-59
2021/05/14 08:47:20;;;;;;;8.70;4.40;;;;;;;24.99;50.06;99204.71;124311;1104;64818;-59
2021/05/14 08:49:49;;;;;;;9.10;4.15;;;;;;;25.05;49.28;99203.84;124291;1100;64435;-59
2021/05/14 08:52:20;;;;;;;8.47;3.57;;;;;;;24.97;48.98;99201.45;124282;1104;64387;-59
2021/05/14 08:54:49;;;;;;;6.93;3.13;;;;;;;24.82;48.91;99195.60;124337;1099;64247;-66
2021/05/14 08:57:20;;;;;;;7.53;3.47;;;;;;;24.68;48.96;99195.67;124384;1104;64310;-66
2021/05/14 09:03:02;;;;;;;7.73;3.50;;;;;;;24.46;49.34;99203.97;124068;1095;64400;-56
2021/05/14 09:05:32;;;;;;;8.03;3.40;;;;;;;24.39;49.62;99197.86;123373;1111;64483;-55
2021/05/14 09:08:03;;;;;;;8.15;3.45;;;;;;;24.35;49.43;99193.98;123368;1105;64419;-57
2021/05/14 09:10:34;;;;;;;5.30;2.90;;;;;;;24.33;49.59;99188.06;123361;1105;64352;-58
2021/05/14 09:13:11;;;;;;;6.90;3.30;;;;;;;24.29;50.05;99192.17;123477;1106;64322;-58
2021/05/14 09:15:41;;;;;;;8.80;3.50;;;;;;;24.26;49.95;99196.08;123430;1111;64390;-57
2021/05/14 09:18:14;;;;;;;8.40;3.20;;;;;;;24.25;49.60;99201.63;123352;1111;64361;-57
2021/05/14 09:20:59;;;;;;;10.47;3.17;;;;;;;24.23;49.74;99198.36;123372;1105;64825;-58
2021/05/14 09:23:36;;;;;;;5.80;2.95;;;;;;;24.20;50.06;99200.41;123478;1111;64371;-59
2021/05/14 09:26:15;;;;;;;9.03;2.70;;;;;;;24.20;50.22;99202.24;123375;1111;65562;-57
2021/05/14 09:28:50;;;;;;;9.23;3.20;;;;;;;24.19;50.05;99203.27;123386;1111;64342;-58
2021/05/14 09:31:27;;;;;;;4.70;2.73;;;;;;;24.16;49.99;99199.20;123381;1104;64357;-57
2021/05/14 09:33:58;;;;;;;7.90;3.08;;;;;;;24.15;50.09;99197.56;123430;1111;64278;-57
2021/05/14 09:36:30;;;;;;;9.83;3.77;;;;;;;24.13;49.99;99202.28;123385;1111;64633;-57
2021/05/14 09:39:00;;;;;;;7.80;2.80;;;;;;;24.14;50.27;99201.25;123373;1111;64489;-57
2021/05/14 09:41:42;;;;;;;3.97;2.50;;;;;;;24.14;50.38;99208.40;123464;1111;64482;-58
2021/05/14 09:44:16;;;;;;;11.47;3.17;;;;;;;24.10;50.05;99194.72;123462;1111;64677;-59
2021/05/14 09:46:45;;;;;;;11.15;3.50;;;;;;;24.11;50.18;99206.98;123461;1106;64352;-61
2021/05/14 09:49:21;;;;;;;7.27;2.87;;;;;;;24.14;49.93;99211.06;123477;1111;64307;-60
2021/05/14 09:51:53;;;;;;;11.50;3.60;;;;;;;24.13;49.98;99220.90;123332;1111;64496;-60
2021/05/14 09:54:27;;;;;;;9.73;3.60;;;;;;;24.14;49.62;99205.74;123351;1111;64349;-56
2021/05/14 09:58:00;;;;;;;10.75;3.25;;;;;;;24.14;50.06;99206.57;123312;1111;64351;-59
2021/05/14 10:00:09;;;;;;;8.20;3.00;;;;;;;24.14;49.92;99206.57;123339;1106;64349;-58
2021/05/14 10:02:40;;;;;;;6.67;3.20;;;;;;;24.15;49.97;99212.70;123453;1111;64278;-58
2021/05/14 10:05:14;;;;;;;7.33;3.10;;;;;;;24.15;49.95;99207.38;123440;1111;64448;-59
2021/05/14 10:07:46;;;;;;;6.13;2.87;;;;;;;24.14;49.86;99209.23;123339;1105;64352;-59
2021/05/14 10:10:18;;;;;;;14.97;3.10;;;;;;;24.15;50.00;99207.38;123449;1105;64352;-59
2021/05/14 10:12:49;;;;;;;23.33;3.03;;;;;;;24.16;49.77;99203.69;123345;1111;64383;-58
2021/05/14 10:15:18;;;;;;;6.50;2.77;;;;;;;24.19;50.15;99208.59;123339;1106;64336;-59
2021/05/14 10:17:51;;;;;;;8.90;3.10;;;;;;;24.19;49.88;99209.42;123341;1105;64267;-59
2021/05/14 10:20:24;;;;;;;7.97;3.23;;;;;;;24.20;49.37;99211.05;123411;1111;64509;-59
2021/05/14 10:22:53;;;;;;;4.35;3.00;;;;;;;24.21;49.82;99201.22;123362;1111;64429;-59
2021/05/14 10:25:39;;;;;;;8.67;3.20;;;;;;;24.23;49.69;99203.68;123384;1111;64778;-58
2021/05/14 10:28:26;;;;;;;4.63;2.47;;;;;;;24.22;49.79;99208.17;123360;1104;64348;-59
2021/05/14 10:31:15;;;;;;;7.07;3.20;;;;;;;24.24;49.65;99211.44;123395;1111;64349;-59
2021/05/14 10:33:54;;;;;;;6.17;2.87;;;;;;;24.24;49.73;99210.63;123402;1110;64817;-58
2021/05/14 10:36:32;;;;;;;6.10;2.83;;;;;;;24.22;49.99;99204.70;123358;1111;64376;-58
2021/05/14 10:39:01;;;;;;;9.13;3.63;;;;;;;24.22;49.81;99208.17;123371;1111;64354;-58
2021/05/14 10:41:31;;;;;;;8.00;3.03;;;;;;;24.22;49.89;99200.19;123378;1111;64374;-58
2021/05/14 10:44:01;;;;;;;5.70;2.93;;;;;;;24.21;49.91;99211.86;123347;1106;64415;-58
2021/05/14 10:46:33;;;;;;;5.87;3.43;;;;;;;24.22;49.69;99202.05;123385;1105;64361;-59
2021/05/14 10:49:04;;;;;;;6.37;2.73;;;;;;;24.23;49.80;99207.14;123439;1105;64349;-58
2021/05/14 10:51:46;;;;;;;8.47;3.30;;;;;;;24.23;49.92;99204.48;123312;1105;64278;-58
2021/05/14 10:54:43;;;;;;;8.00;3.30;;;;;;;24.25;49.92;99210.41;123385;1111;64223;-60
2021/05/14 10:57:13;;;;;;;6.10;2.87;;;;;;;24.25;49.83;99207.75;123609;1106;64663;-59
2021/05/14 10:59:42;;;;;;;6.10;3.20;;;;;;;24.28;49.87;99206.53;123373;1110;64431;-58
2021/05/14 11:02:30;;;;;;;6.47;3.13;;;;;;;24.28;49.86;99204.67;123551;1111;64272;-58
2021/05/14 11:05:00;;;;;;;5.43;2.80;;;;;;;24.29;49.96;99205.47;123592;1111;64355;-58
2021/05/14 11:07:48;;;;;;;5.93;2.27;;;;;;;24.29;49.83;99203.64;123528;1105;64352;-58
